createdAt,value
2018-11-27T00:00:26.230Z,4.93
2018-11-27T00:03:10.413Z,4.60
2018-11-27T00:05:39.225Z,5.00
2018-11-27T00:08:08.328Z,4.80
2018-11-27T00:10:39.263Z,4.00
2018-11-27T00:13:08.887Z,5.03
2018-11-27T00:15:37.544Z,4.40
2018-11-27T00:18:06.339Z,4.70
2018-11-27T00:20:34.965Z,4.97
2018-11-27T00:23:03.752Z,5.13
2018-11-27T00:25:32.401Z,4.90
2018-11-27T00:28:00.990Z,4.80
2018-11-27T00:30:29.605Z,4.80
2018-11-27T00:32:58.191Z,5.03
2018-11-27T00:35:26.811Z,4.70
2018-11-27T00:37:55.431Z,4.00
2018-11-27T00:40:24.588Z,4.17
2018-11-27T00:42:53.215Z,4.03
2018-11-27T00:45:22.038Z,3.97
2018-11-27T00:47:51.360Z,4.90
2018-11-27T00:50:21.307Z,4.90
2018-11-27T00:52:49.988Z,4.73
2018-11-27T00:55:19.358Z,4.60
2018-11-27T00:57:49.318Z,5.23
2018-11-27T01:00:20.038Z,4.73
2018-11-27T01:02:48.764Z,4.40
2018-11-27T01:05:18.753Z,4.60
2018-11-27T01:07:47.719Z,5.63
2018-11-27T01:10:21.022Z,4.50
2018-11-27T01:12:49.654Z,4.37
2018-11-27T01:15:18.400Z,4.40
2018-11-27T01:17:51.512Z,4.27
2018-11-27T01:20:21.149Z,4.67
2018-11-27T01:22:49.809Z,4.80
2018-11-27T01:25:18.471Z,4.60
2018-11-27T01:27:47.088Z,4.43
2018-11-27T01:30:16.894Z,4.37
2018-11-27T01:32:45.637Z,4.00
2018-11-27T01:35:18.243Z,4.63
2018-11-27T01:37:47.691Z,4.97
2018-11-27T01:40:18.148Z,4.87
2018-11-27T01:42:47.807Z,5.20
2018-11-27T01:45:17.587Z,4.83
2018-11-27T01:47:46.309Z,4.70
2018-11-27T01:50:15.806Z,5.50
2018-11-27T01:52:44.530Z,4.67
2018-11-27T01:55:15.075Z,5.37
2018-11-27T01:57:43.752Z,5.30
2018-11-27T02:00:28.272Z,4.90
2018-11-27T02:02:57.554Z,5.30
2018-11-27T02:05:26.773Z,5.03
2018-11-27T02:07:55.429Z,5.80
2018-11-27T02:10:24.109Z,5.73
2018-11-27T02:12:53.843Z,5.47
2018-11-27T02:15:25.468Z,4.90
2018-11-27T02:17:54.404Z,5.37
2018-11-27T02:20:23.010Z,5.20
2018-11-27T02:22:51.617Z,5.27
2018-11-27T02:25:22.447Z,4.93
2018-11-27T02:27:51.210Z,5.70
2018-11-27T02:30:21.553Z,6.03
2018-11-27T02:32:50.276Z,5.83
2018-11-27T02:35:21.812Z,5.33
2018-11-27T02:37:52.490Z,5.63
2018-11-27T02:40:21.130Z,5.10
2018-11-27T02:42:49.721Z,5.10
2018-11-27T02:45:20.430Z,5.00
2018-11-27T02:47:49.931Z,4.50
2018-11-27T02:50:19.577Z,5.03
2018-11-27T02:52:48.167Z,4.23
2018-11-27T02:55:18.885Z,5.20
2018-11-27T02:57:47.596Z,5.10
2018-11-27T03:00:18.249Z,5.40
2018-11-27T03:02:46.920Z,5.57
2018-11-27T03:05:21.743Z,4.60
2018-11-27T03:07:50.345Z,4.60
2018-11-27T03:10:18.963Z,4.87
2018-11-27T03:12:47.562Z,4.73
2018-11-27T03:15:17.269Z,4.13
2018-11-27T03:17:45.887Z,4.30
2018-11-27T03:20:16.515Z,4.73
2018-11-27T03:22:45.156Z,4.57
2018-11-27T03:25:16.715Z,4.53
2018-11-27T03:27:46.360Z,4.27
2018-11-27T03:30:16.960Z,4.40
2018-11-27T03:32:45.798Z,5.00
2018-11-27T03:35:16.190Z,4.50
2018-11-27T03:37:45.425Z,4.63
2018-11-27T03:40:18.173Z,3.97
2018-11-27T03:42:46.800Z,3.93
2018-11-27T03:45:16.073Z,4.87
2018-11-27T03:47:44.730Z,4.40
2018-11-27T03:50:20.386Z,4.60
2018-11-27T03:52:48.961Z,4.77
2018-11-27T03:55:17.649Z,4.83
2018-11-27T03:57:46.224Z,4.50
2018-11-27T04:00:18.961Z,4.97
2018-11-27T04:02:49.865Z,4.87
2018-11-27T04:05:18.436Z,4.93
2018-11-27T04:07:47.052Z,5.00
2018-11-27T04:10:17.760Z,5.47
2018-11-27T04:12:46.380Z,4.50
2018-11-27T04:15:15.049Z,4.60
2018-11-27T04:17:43.664Z,4.70
2018-11-27T04:20:12.996Z,5.30
2018-11-27T04:22:42.420Z,5.17
2018-11-27T04:25:13.111Z,5.13
2018-11-27T04:27:41.754Z,5.20
2018-11-27T04:30:12.208Z,5.37
2018-11-27T04:32:40.894Z,5.50
2018-11-27T04:35:11.026Z,5.80
2018-11-27T04:37:39.644Z,5.40
2018-11-27T04:40:10.751Z,5.33
2018-11-27T04:42:39.379Z,5.03
2018-11-27T04:45:12.602Z,5.13
2018-11-27T04:47:41.167Z,5.50
2018-11-27T04:50:11.947Z,4.27
2018-11-27T04:52:40.539Z,4.53
2018-11-27T04:55:25.637Z,5.87
2018-11-27T04:57:54.228Z,5.90
2018-11-27T05:00:23.872Z,5.30
2018-11-27T05:02:52.487Z,5.30
2018-11-27T05:05:21.177Z,4.97
2018-11-27T05:07:49.855Z,5.83
2018-11-27T05:10:21.053Z,5.33
2018-11-27T05:12:49.715Z,5.07
2018-11-27T05:15:20.441Z,5.57
2018-11-27T05:17:51.010Z,5.57
2018-11-27T05:20:19.649Z,5.80
2018-11-27T05:22:48.234Z,6.00
2018-11-27T05:25:17.792Z,5.90
2018-11-27T05:27:49.340Z,6.50
2018-11-27T05:30:21.005Z,6.43
2018-11-27T05:32:49.623Z,6.20
2018-11-27T05:35:20.225Z,6.17
2018-11-27T05:37:49.606Z,6.90
2018-11-27T05:40:21.567Z,6.77
2018-11-27T05:42:52.507Z,7.03
2018-11-27T05:45:22.046Z,7.33
2018-11-27T05:47:50.670Z,6.90
2018-11-27T05:50:19.514Z,6.00
2018-11-27T05:52:48.372Z,6.93
2018-11-27T05:55:17.382Z,6.60
2018-11-27T05:57:53.884Z,6.80
2018-11-27T06:00:23.945Z,6.83
2018-11-27T06:02:54.545Z,7.13
2018-11-27T06:05:23.734Z,7.30
2018-11-27T06:07:52.326Z,7.73
2018-11-27T06:10:22.013Z,7.40
2018-11-27T06:12:50.716Z,6.80
2018-11-27T06:15:21.545Z,8.40
2018-11-27T06:17:52.338Z,7.00
2018-11-27T06:20:21.776Z,7.70
2018-11-27T06:22:51.471Z,7.80
2018-11-27T06:25:22.303Z,7.47
2018-11-27T06:27:57.190Z,7.67
2018-11-27T06:30:26.850Z,7.37
2018-11-27T06:32:55.517Z,8.37
2018-11-27T06:35:34.957Z,8.30
2018-11-27T06:38:04.602Z,8.27
2018-11-27T06:40:33.248Z,7.40
2018-11-27T06:43:01.865Z,8.00
2018-11-27T06:45:30.514Z,7.90
2018-11-27T06:47:59.118Z,7.97
2018-11-27T06:50:30.579Z,7.53
2018-11-27T06:52:59.210Z,7.77
2018-11-27T06:55:27.800Z,7.30
2018-11-27T06:57:56.402Z,7.73
2018-11-27T07:00:29.146Z,8.83
2018-11-27T07:02:58.529Z,8.53
2018-11-27T07:05:27.219Z,7.90
2018-11-27T07:07:55.888Z,10.17
2018-11-27T07:10:30.816Z,9.17
2018-11-27T07:13:06.414Z,8.53
2018-11-27T07:15:35.060Z,9.03
2018-11-27T07:18:03.796Z,9.60
2018-11-27T07:20:32.422Z,9.00
2018-11-27T07:23:01.053Z,8.17
2018-11-27T07:25:29.656Z,9.10
2018-11-27T07:27:58.238Z,9.37
2018-11-27T07:30:26.962Z,8.73
2018-11-27T07:32:55.560Z,8.27
2018-11-27T07:35:24.253Z,9.33
2018-11-27T07:37:53.207Z,8.67
2018-11-27T07:40:23.963Z,8.67
2018-11-27T07:42:54.777Z,9.73
2018-11-27T07:45:24.151Z,9.30
2018-11-27T07:47:53.693Z,9.03
2018-11-27T07:50:22.341Z,10.00
2018-11-27T07:52:50.995Z,9.43
2018-11-27T07:55:21.771Z,8.80
2018-11-27T07:57:51.284Z,9.03
2018-11-27T08:00:23.540Z,8.67
2018-11-27T08:02:53.952Z,10.27
2018-11-27T08:05:25.824Z,9.73
2018-11-27T08:07:55.495Z,11.00
2018-11-27T08:10:25.304Z,11.40
2018-11-27T08:12:55.129Z,11.03
2018-11-27T08:15:25.796Z,10.67
2018-11-27T08:17:54.384Z,9.67
2018-11-27T08:20:25.873Z,11.27
2018-11-27T08:22:54.521Z,10.83
2018-11-27T08:25:23.186Z,11.63
2018-11-27T08:27:51.799Z,11.97
2018-11-27T08:30:21.160Z,11.67
2018-11-27T08:32:49.916Z,12.57
2018-11-27T08:35:22.654Z,12.70
2018-11-27T08:37:52.277Z,12.57
2018-11-27T08:40:22.151Z,12.90
2018-11-27T08:42:50.865Z,13.27
2018-11-27T08:45:20.589Z,12.10
2018-11-27T08:47:50.172Z,13.73
2018-11-27T08:50:20.085Z,13.23
2018-11-27T08:53:00.776Z,13.97
2018-11-27T08:55:32.219Z,13.27
2018-11-27T08:58:01.665Z,14.17
2018-11-27T09:00:30.279Z,15.07
2018-11-27T09:02:58.905Z,13.70
2018-11-27T09:05:27.532Z,13.97
2018-11-27T09:07:56.172Z,13.90
2018-11-27T09:10:25.763Z,14.23
2018-11-27T09:12:54.647Z,13.57
2018-11-27T09:15:23.861Z,13.70
2018-11-27T09:18:34.057Z,13.90
2018-11-27T09:21:02.685Z,13.50
2018-11-27T09:23:31.302Z,12.97
2018-11-27T09:25:59.986Z,13.93
2018-11-27T09:28:28.648Z,14.23
2018-11-27T09:30:57.297Z,13.93
2018-11-27T09:33:25.898Z,13.33
2018-11-27T09:35:54.489Z,14.50
2018-11-27T09:38:23.135Z,13.47
2018-11-27T09:40:51.803Z,14.63
2018-11-27T09:43:20.438Z,12.73
2018-11-27T09:45:49.710Z,13.77
2018-11-27T09:48:18.340Z,13.83
2018-11-27T09:50:47.011Z,13.70
2018-11-27T09:53:16.244Z,15.03
2018-11-27T09:55:44.914Z,14.37
2018-11-27T09:58:13.630Z,14.63
2018-11-27T10:00:42.289Z,13.97
2018-11-27T10:03:12.676Z,14.77
2018-11-27T10:05:41.334Z,14.63
2018-11-27T10:08:10.234Z,15.03
2018-11-27T10:10:38.888Z,14.57
2018-11-27T10:13:08.132Z,13.97
2018-11-27T10:15:37.290Z,14.50
2018-11-27T10:18:06.205Z,15.57
2018-11-27T10:20:37.111Z,15.90
2018-11-27T10:23:08.985Z,15.40
2018-11-27T10:25:37.650Z,14.10
2018-11-27T10:28:06.743Z,14.97
2018-11-27T10:30:35.511Z,16.50
2018-11-27T10:33:05.302Z,14.97
2018-11-27T10:35:35.929Z,15.37
2018-11-27T10:38:04.643Z,14.03
2018-11-27T10:40:33.318Z,13.93
2018-11-27T10:43:01.972Z,14.83
2018-11-27T10:45:34.625Z,15.00
2018-11-27T10:48:03.236Z,13.63
2018-11-27T10:50:31.875Z,15.60
2018-11-27T10:53:10.326Z,15.73
2018-11-27T10:55:52.207Z,16.27
2018-11-27T10:58:29.881Z,14.97
2018-11-27T11:01:15.384Z,15.73
2018-11-27T11:03:53.359Z,15.00
2018-11-27T11:06:27.684Z,15.67
2018-11-27T11:09:11.818Z,16.10
2018-11-27T11:11:47.294Z,15.27
2018-11-27T11:14:16.176Z,15.87
2018-11-27T11:16:44.803Z,16.07
2018-11-27T11:19:18.266Z,15.80
2018-11-27T11:21:42.130Z,15.20
2018-11-27T11:24:10.704Z,16.07
2018-11-27T11:26:39.343Z,15.73
2018-11-27T11:29:07.986Z,16.37
2018-11-27T11:31:36.683Z,15.67
2018-11-27T11:34:05.812Z,15.43
2018-11-27T11:36:34.452Z,16.50
2018-11-27T11:39:03.222Z,15.03
2018-11-27T11:41:31.844Z,14.90
2018-11-27T11:44:00.459Z,15.33
2018-11-27T11:46:29.134Z,14.47
2018-11-27T11:49:01.909Z,16.20
2018-11-27T11:51:26.541Z,13.87
2018-11-27T11:53:55.180Z,16.20
2018-11-27T11:56:23.839Z,14.77
2018-11-27T11:58:52.485Z,15.53
2018-11-27T12:01:21.140Z,15.37
2018-11-27T12:03:53.188Z,15.70
2018-11-27T12:06:21.869Z,15.07
2018-11-27T12:08:50.551Z,15.43
2018-11-27T12:11:19.212Z,15.10
2018-11-27T12:13:47.905Z,15.10
2018-11-27T12:16:16.606Z,14.10
2018-11-27T12:18:45.277Z,14.67
2018-11-27T12:21:13.954Z,14.00
2018-11-27T12:23:42.589Z,13.77
2018-11-27T12:26:11.208Z,13.33
2018-11-27T12:28:39.832Z,14.03
2018-11-27T12:31:08.593Z,13.63
2018-11-27T12:33:37.238Z,12.73
2018-11-27T12:36:05.917Z,13.47
2018-11-27T12:38:34.543Z,12.87
2018-11-27T12:41:03.157Z,11.73
2018-11-27T12:43:31.816Z,12.67
2018-11-27T12:46:00.445Z,13.37
2018-11-27T12:48:29.242Z,13.60
2018-11-27T12:50:57.958Z,12.00
2018-11-27T12:53:26.648Z,12.07
2018-11-27T12:55:55.269Z,12.80
2018-11-27T12:58:24.016Z,12.47
2018-11-27T13:00:52.659Z,12.87
2018-11-27T13:03:21.347Z,12.17
2018-11-27T13:05:50.060Z,11.07
2018-11-27T13:08:20.933Z,12.30
2018-11-27T13:10:49.661Z,11.57
2018-11-27T13:13:18.332Z,11.90
2018-11-27T13:15:48.010Z,11.17
2018-11-27T13:18:18.236Z,11.10
2018-11-27T13:20:46.972Z,10.60
2018-11-27T13:23:15.662Z,11.07
2018-11-27T13:25:44.372Z,10.93
2018-11-27T13:28:14.022Z,9.97
2018-11-27T13:30:53.567Z,11.00
2018-11-27T13:33:24.877Z,10.70
2018-11-27T13:35:53.520Z,10.97
2018-11-27T13:38:22.235Z,11.33
2018-11-27T13:40:50.923Z,9.80
2018-11-27T13:43:24.996Z,10.03
2018-11-27T13:45:54.048Z,10.57
2018-11-27T13:48:22.738Z,10.77
2018-11-27T13:50:51.462Z,11.97
2018-11-27T13:53:20.210Z,12.13
2018-11-27T13:55:48.967Z,11.93
2018-11-27T13:58:17.667Z,11.37
2018-11-27T14:00:46.464Z,11.23
2018-11-27T14:03:15.178Z,11.43
2018-11-27T14:05:43.902Z,10.80
2018-11-27T14:08:12.953Z,11.67
2018-11-27T14:10:41.885Z,11.23
2018-11-27T14:26:46.037Z,11.63
2018-11-27T14:29:15.005Z,10.93
2018-11-27T14:31:43.786Z,10.70
2018-11-27T14:34:12.492Z,10.13
2018-11-27T14:36:41.141Z,11.40
2018-11-27T14:39:10.306Z,10.97
2018-11-27T14:41:38.948Z,10.30
2018-11-27T14:44:07.656Z,10.90
2018-11-27T14:46:36.352Z,11.00
2018-11-27T14:49:05.150Z,10.83
2018-11-27T14:51:33.866Z,10.60
2018-11-27T14:54:02.575Z,9.93
2018-11-27T14:56:31.383Z,10.10
2018-11-27T14:59:00.146Z,9.90
2018-11-27T15:01:28.848Z,9.70
2018-11-27T15:03:57.612Z,9.63
2018-11-27T15:06:26.405Z,10.27
2018-11-27T15:08:55.112Z,9.47
2018-11-27T15:11:23.796Z,10.43
2018-11-27T15:13:53.942Z,9.60
2018-11-27T15:16:22.603Z,9.47
2018-11-27T15:18:51.389Z,11.03
2018-11-27T15:21:20.424Z,10.00
2018-11-27T15:23:49.113Z,9.97
2018-11-27T15:26:17.926Z,10.20
2018-11-27T15:28:46.592Z,9.83
2018-11-27T15:31:15.260Z,9.00
2018-11-27T15:33:43.974Z,9.40
2018-11-27T15:36:12.652Z,10.17
2018-11-27T15:38:41.393Z,9.80
2018-11-27T15:41:10.030Z,8.37
2018-11-27T15:43:38.808Z,9.77
2018-11-27T15:46:07.494Z,9.47
2018-11-27T15:48:36.167Z,9.10
2018-11-27T15:51:04.945Z,10.07
2018-11-27T15:53:33.586Z,9.83
2018-11-27T15:56:02.221Z,9.50
2018-11-27T15:58:30.900Z,7.77
2018-11-27T16:00:59.591Z,10.87
2018-11-27T16:03:28.281Z,9.60
2018-11-27T16:05:57.054Z,10.20
2018-11-27T16:08:25.711Z,9.67
2018-11-27T16:10:54.418Z,10.17
2018-11-27T16:13:23.075Z,10.03
2018-11-27T16:15:51.775Z,9.73
2018-11-27T16:18:20.793Z,9.43
2018-11-27T16:20:49.477Z,10.53
2018-11-27T16:23:18.140Z,9.73
2018-11-27T16:25:46.871Z,9.00
2018-11-27T16:28:15.511Z,9.60
2018-11-27T16:30:44.151Z,9.43
2018-11-27T16:33:12.853Z,8.80
2018-11-27T16:35:41.518Z,9.47
2018-11-27T16:38:11.365Z,9.87
2018-11-27T16:40:40.430Z,10.40
2018-11-27T16:43:09.197Z,9.97
2018-11-27T16:45:37.881Z,10.03
2018-11-27T16:48:06.798Z,9.63
2018-11-27T16:50:35.503Z,9.53
2018-11-27T16:53:04.152Z,9.37
2018-11-27T16:55:33.156Z,11.03
2018-11-27T16:58:01.904Z,10.73
2018-11-27T17:00:32.657Z,10.53
2018-11-27T17:03:02.746Z,16.30
2018-11-27T17:05:34.309Z,10.57
2018-11-27T17:08:03.339Z,9.90
2018-11-27T17:10:32.210Z,9.63
2018-11-27T17:13:00.999Z,10.40
2018-11-27T17:15:29.875Z,10.10
2018-11-27T17:17:58.729Z,10.50
2018-11-27T17:20:29.478Z,10.03
2018-11-27T17:23:00.664Z,13.03
2018-11-27T17:25:29.696Z,13.97
2018-11-27T17:28:03.322Z,13.77
2018-11-27T17:30:44.256Z,13.70
2018-11-27T17:33:15.349Z,14.67
2018-11-27T17:35:44.306Z,14.33
2018-11-27T17:38:13.060Z,13.83
2018-11-27T17:40:41.761Z,13.20
2018-11-27T17:43:10.477Z,12.60
2018-11-27T17:45:39.221Z,14.83
2018-11-27T17:48:08.582Z,14.10
2018-11-27T17:50:37.327Z,11.67
2018-11-27T17:53:06.542Z,11.87
2018-11-27T17:55:35.265Z,11.10
2018-11-27T17:58:03.943Z,11.10
2018-11-27T18:00:32.620Z,12.40
2018-11-27T18:03:03.330Z,11.40
2018-11-27T18:05:32.261Z,11.00
2018-11-27T18:08:00.907Z,11.63
2018-11-27T18:10:29.607Z,9.47
2018-11-27T18:12:58.233Z,10.20
2018-11-27T18:15:26.869Z,11.03
2018-11-27T18:17:55.503Z,11.20
2018-11-27T18:20:24.228Z,10.90
2018-11-27T18:22:52.959Z,12.13
2018-11-27T18:25:21.666Z,10.33
2018-11-27T18:27:50.745Z,10.90
2018-11-27T18:30:20.914Z,11.30
2018-11-27T18:32:49.653Z,11.53
2018-11-27T18:35:21.668Z,11.13
2018-11-27T18:37:51.278Z,10.67
2018-11-27T18:40:20.156Z,10.67
2018-11-27T18:42:49.219Z,12.00
2018-11-27T18:45:22.645Z,11.57
2018-11-27T18:47:51.409Z,13.03
2018-11-27T18:50:20.411Z,12.00
2018-11-27T18:52:49.296Z,14.10
2018-11-27T18:55:18.032Z,13.83
2018-11-27T18:57:51.074Z,12.77
2018-11-27T19:00:23.659Z,14.23
2018-11-27T19:02:52.460Z,12.50
2018-11-27T19:05:21.193Z,14.57
2018-11-27T19:07:49.933Z,14.70
2018-11-27T19:10:19.836Z,12.40
2018-11-27T19:12:50.048Z,11.53
2018-11-27T19:15:23.340Z,11.80
2018-11-27T19:17:54.026Z,10.50
2018-11-27T19:20:22.798Z,10.53
2018-11-27T19:22:51.440Z,11.90
2018-11-27T19:25:20.117Z,11.03
2018-11-27T19:27:48.904Z,11.37
2018-11-27T19:30:18.725Z,11.73
2018-11-27T19:32:47.448Z,10.43
2018-11-27T19:35:17.357Z,10.90
2018-11-27T19:37:46.838Z,12.60
2018-11-27T19:40:16.730Z,12.10
2018-11-27T19:42:45.426Z,12.83
2018-11-27T19:45:23.998Z,11.63
2018-11-27T19:47:52.877Z,12.60
2018-11-27T19:50:21.715Z,10.57
2018-11-27T19:52:51.955Z,11.67
2018-11-27T19:55:20.614Z,12.10
2018-11-27T19:57:49.346Z,12.17
2018-11-27T20:00:25.150Z,10.27
2018-11-27T20:02:54.007Z,10.90
2018-11-27T20:05:25.006Z,11.37
2018-11-27T20:07:53.721Z,11.40
2018-11-27T20:10:22.489Z,10.37
2018-11-27T20:12:51.208Z,11.63
2018-11-27T20:15:22.920Z,11.83
2018-11-27T20:17:52.267Z,10.50
2018-11-27T20:20:23.072Z,10.73
2018-11-27T20:22:52.445Z,11.87
2018-11-27T20:25:22.188Z,10.60
2018-11-27T20:27:51.083Z,10.90
2018-11-27T20:30:23.375Z,10.60
2018-11-27T20:32:56.208Z,10.27
2018-11-27T20:35:25.185Z,10.60
2018-11-27T20:37:54.716Z,10.60
2018-11-27T20:40:23.608Z,12.03
2018-11-27T20:42:52.361Z,11.47
2018-11-27T20:45:22.644Z,11.00
2018-11-27T20:47:53.072Z,10.87
2018-11-27T20:50:22.663Z,11.10
2018-11-27T20:52:51.458Z,11.33
2018-11-27T20:55:21.067Z,12.10
2018-11-27T20:57:56.046Z,10.90
2018-11-27T21:00:32.006Z,11.73
2018-11-27T21:03:01.601Z,10.87
2018-11-27T21:05:30.269Z,11.00
2018-11-27T21:07:58.931Z,10.93
2018-11-27T21:10:27.667Z,11.80
2018-11-27T21:12:56.312Z,12.13
2018-11-27T21:15:25.892Z,11.27
2018-11-27T21:17:54.682Z,11.47
2018-11-27T21:20:23.363Z,10.33
2018-11-27T21:22:52.089Z,12.10
2018-11-27T21:25:23.819Z,11.50
2018-11-27T21:28:01.172Z,10.33
2018-11-27T21:30:30.136Z,10.47
2018-11-27T21:32:58.797Z,11.53
2018-11-27T21:35:27.575Z,10.87
2018-11-27T21:37:56.239Z,11.43
2018-11-27T21:40:24.993Z,10.23
2018-11-27T21:42:53.828Z,11.70
2018-11-27T21:45:23.892Z,12.73
2018-11-27T21:47:53.296Z,11.63
2018-11-27T21:50:27.955Z,11.70
2018-11-27T21:52:57.201Z,11.53
2018-11-27T21:55:25.916Z,11.97
2018-11-27T21:57:54.577Z,11.57
2018-11-27T22:00:24.730Z,12.27
2018-11-27T22:02:53.507Z,13.13
2018-11-27T22:05:22.200Z,11.73
2018-11-27T22:07:50.938Z,12.03
2018-11-27T22:10:21.096Z,12.37
2018-11-27T22:12:52.557Z,11.57
2018-11-27T22:15:23.552Z,12.53
2018-11-27T22:17:52.207Z,11.83
2018-11-27T22:20:21.553Z,11.57
2018-11-27T22:22:49.672Z,11.37
2018-11-27T22:25:18.362Z,11.83
2018-11-27T22:27:47.056Z,12.23
2018-11-27T22:30:17.302Z,12.03
2018-11-27T22:32:48.120Z,12.93
2018-11-27T22:35:16.906Z,12.00
2018-11-27T22:37:45.578Z,12.80
2018-11-27T22:40:22.187Z,11.90
2018-11-27T22:42:51.607Z,11.40
2018-11-27T22:45:27.598Z,12.90
2018-11-27T22:47:56.238Z,11.73
2018-11-27T22:50:24.902Z,11.53
2018-11-27T22:52:53.609Z,13.23
2018-11-27T22:55:22.282Z,12.17
2018-11-27T22:57:50.921Z,12.03
2018-11-27T23:00:32.189Z,11.90
2018-11-27T23:03:00.923Z,13.50
2018-11-27T23:05:29.634Z,12.20
2018-11-27T23:07:58.392Z,12.73
2018-11-27T23:10:28.567Z,13.40
2018-11-27T23:12:57.254Z,13.53
2018-11-27T23:15:25.981Z,12.70
2018-11-27T23:17:54.594Z,12.07
2018-11-27T23:20:23.282Z,12.73
2018-11-27T23:22:51.895Z,13.90
2018-11-27T23:25:20.520Z,14.00
2018-11-27T23:27:49.210Z,12.00
2018-11-27T23:30:19.372Z,11.77
2018-11-27T23:32:48.281Z,11.97
2018-11-27T23:35:17.018Z,11.93
2018-11-27T23:37:45.718Z,12.93
2018-11-27T23:40:15.764Z,13.27
2018-11-27T23:42:44.839Z,12.10
2018-11-27T23:45:15.454Z,12.33
2018-11-27T23:47:44.127Z,12.27
2018-11-27T23:50:14.065Z,15.20
2018-11-27T23:52:42.932Z,15.23
2018-11-27T23:55:12.467Z,13.73
2018-11-27T23:57:41.396Z,12.20
